createdAt,value
2017-11-30T00:00:29.216Z,7.71
2017-11-30T00:01:09.638Z,7.81
2017-11-30T00:01:50.002Z,7.77
2017-11-30T00:02:30.382Z,7.89
2017-11-30T00:03:10.771Z,7.85
2017-11-30T00:03:51.170Z,7.77
2017-11-30T00:04:31.538Z,7.77
2017-11-30T00:05:11.937Z,7.69
2017-11-30T00:05:52.314Z,7.71
2017-11-30T00:06:32.699Z,7.66
2017-11-30T00:07:13.131Z,7.58
2017-11-30T00:07:53.557Z,7.69
2017-11-30T00:08:33.997Z,7.63
2017-11-30T00:09:14.385Z,7.55
2017-11-30T00:09:54.751Z,7.48
2017-11-30T00:10:35.139Z,7.5
2017-11-30T00:11:15.547Z,7.48
2017-11-30T00:11:55.944Z,7.58
2017-11-30T00:12:36.370Z,7.62
2017-11-30T00:13:16.786Z,7.58
2017-11-30T00:13:57.232Z,7.57
2017-11-30T00:14:37.607Z,7.54
2017-11-30T00:15:17.972Z,7.62
2017-11-30T00:15:58.388Z,7.54
2017-11-30T00:16:38.828Z,7.54
2017-11-30T00:17:19.203Z,7.47
2017-11-30T00:17:59.558Z,7.45
2017-11-30T00:18:39.968Z,7.48
2017-11-30T00:19:20.485Z,7.52
2017-11-30T00:20:00.938Z,7.55
2017-11-30T00:20:41.356Z,7.58
2017-11-30T00:21:21.786Z,7.67
2017-11-30T00:22:02.306Z,7.63
2017-11-30T00:22:42.613Z,7.76
2017-11-30T00:23:23.104Z,7.82
2017-11-30T00:24:03.472Z,7.79
2017-11-30T00:24:44.003Z,7.79
2017-11-30T00:25:24.293Z,7.82
2017-11-30T00:26:04.847Z,7.69
2017-11-30T00:26:45.208Z,7.62
2017-11-30T00:27:25.670Z,7.62
2017-11-30T00:28:06.135Z,7.58
2017-11-30T00:28:46.538Z,7.57
2017-11-30T00:29:26.887Z,7.55
2017-11-30T00:30:07.312Z,7.54
2017-11-30T00:30:47.712Z,7.58
2017-11-30T00:31:28.108Z,7.47
2017-11-30T00:32:08.517Z,7.45
2017-11-30T00:32:48.947Z,7.44
2017-11-30T00:33:29.394Z,7.44
2017-11-30T00:34:09.797Z,7.39
2017-11-30T00:34:50.220Z,7.47
2017-11-30T00:35:30.584Z,7.37
2017-11-30T00:36:10.989Z,7.41
2017-11-30T00:36:51.372Z,7.3
2017-11-30T00:37:31.753Z,7.14
2017-11-30T00:38:12.180Z,7.14
2017-11-30T00:38:52.587Z,7.09
2017-11-30T00:39:32.996Z,7
2017-11-30T00:40:13.337Z,6.99
2017-11-30T00:40:53.783Z,6.93
2017-11-30T00:41:34.201Z,6.87
2017-11-30T00:42:14.597Z,6.79
2017-11-30T00:42:55.101Z,6.65
2017-11-30T00:43:35.502Z,6.68
2017-11-30T00:44:15.903Z,6.68
2017-11-30T00:44:56.313Z,6.54
2017-11-30T00:45:36.714Z,6.53
2017-11-30T00:46:17.112Z,6.43
2017-11-30T00:46:57.492Z,6.46
2017-11-30T00:47:37.927Z,6.38
2017-11-30T00:48:18.315Z,6.27
2017-11-30T00:48:58.711Z,6.25
2017-11-30T00:49:39.105Z,6.19
2017-11-30T00:50:19.543Z,6.25
2017-11-30T00:50:59.970Z,6.11
2017-11-30T00:51:40.342Z,6.2
2017-11-30T00:52:20.745Z,6.21
2017-11-30T00:53:01.154Z,6.17
2017-11-30T00:53:41.537Z,6.16
2017-11-30T00:54:21.894Z,6.01
2017-11-30T00:55:02.277Z,6.01
2017-11-30T00:55:43.255Z,5.9
2017-11-30T00:56:23.086Z,5.84
2017-11-30T00:57:03.479Z,5.85
2017-11-30T00:57:44.187Z,5.73
2017-11-30T00:58:24.575Z,5.69
2017-11-30T00:59:04.961Z,5.73
2017-11-30T00:59:45.392Z,5.6
2017-11-30T01:00:25.820Z,5.63
2017-11-30T01:01:06.194Z,5.48
2017-11-30T01:01:46.655Z,5.47
2017-11-30T01:02:27.081Z,5.44
2017-11-30T01:03:07.519Z,5.42
2017-11-30T01:03:47.891Z,5.48
2017-11-30T01:04:28.247Z,5.35
2017-11-30T01:05:08.644Z,5.47
2017-11-30T01:05:49.079Z,5.38
2017-11-30T01:06:29.462Z,5.37
2017-11-30T01:07:09.908Z,5.26
2017-11-30T01:07:50.258Z,5.33
2017-11-30T01:08:30.693Z,5.26
2017-11-30T01:09:11.230Z,5.33
2017-11-30T01:09:51.597Z,5.32
2017-11-30T01:10:31.953Z,5.3
2017-11-30T01:11:12.383Z,5.37
2017-11-30T01:11:52.764Z,5.35
2017-11-30T01:12:33.174Z,5.38
2017-11-30T01:13:13.573Z,5.48
2017-11-30T01:13:53.969Z,5.49
2017-11-30T01:14:34.352Z,5.52
2017-11-30T01:15:14.779Z,5.58
2017-11-30T01:15:55.136Z,5.55
2017-11-30T01:16:35.545Z,5.45
2017-11-30T01:17:15.938Z,5.52
2017-11-30T01:17:56.370Z,5.42
2017-11-30T01:18:36.751Z,5.48
2017-11-30T01:19:17.193Z,5.42
2017-11-30T01:19:57.629Z,5.48
2017-11-30T01:20:38.050Z,5.42
2017-11-30T01:21:18.429Z,5.51
2017-11-30T01:21:58.819Z,5.55
2017-11-30T01:22:39.208Z,5.55
2017-11-30T01:23:19.594Z,5.58
2017-11-30T01:24:00.003Z,5.56
2017-11-30T01:24:40.372Z,5.59
2017-11-30T01:25:20.805Z,5.56
2017-11-30T01:26:01.211Z,5.48
2017-11-30T01:26:41.609Z,5.51
2017-11-30T01:27:22.048Z,5.47
2017-11-30T01:28:02.442Z,5.49
2017-11-30T01:28:42.832Z,5.48
2017-11-30T01:29:23.520Z,5.49
2017-11-30T01:30:03.680Z,5.63
2017-11-30T01:30:44.090Z,5.62
2017-11-30T01:31:24.460Z,5.62
2017-11-30T01:32:04.898Z,5.6
2017-11-30T01:32:45.318Z,5.75
2017-11-30T01:33:25.838Z,5.84
2017-11-30T01:34:06.179Z,5.98
2017-11-30T01:34:46.668Z,5.9
2017-11-30T01:35:27.092Z,6.05
2017-11-30T01:36:07.532Z,5.99
2017-11-30T01:36:47.880Z,6.17
2017-11-30T01:37:28.238Z,6.08
2017-11-30T01:38:08.617Z,6.1
2017-11-30T01:38:49.028Z,6.17
2017-11-30T01:39:29.430Z,6.19
2017-11-30T01:40:09.813Z,6.24
2017-11-30T01:40:50.251Z,6.3
2017-11-30T01:41:30.674Z,6.48
2017-11-30T01:42:11.132Z,6.53
2017-11-30T01:42:51.551Z,6.55
2017-11-30T01:43:34.013Z,6.53
2017-11-30T01:44:14.634Z,6.55
2017-11-30T01:44:54.816Z,6.6
2017-11-30T01:45:36.257Z,6.68
2017-11-30T01:46:16.733Z,6.64
2017-11-30T01:46:57.088Z,6.9
2017-11-30T01:47:37.563Z,7.08
2017-11-30T01:48:17.881Z,7
2017-11-30T01:48:58.405Z,7.08
2017-11-30T01:51:02.758Z,7.18
2017-11-30T01:51:44.123Z,7.15
2017-11-30T01:52:24.521Z,7.16
2017-11-30T01:53:04.965Z,7.27
2017-11-30T01:53:45.291Z,7.24
2017-11-30T01:54:25.714Z,7.3
2017-11-30T01:55:06.147Z,7.15
2017-11-30T01:55:46.549Z,7.16
2017-11-30T01:56:26.989Z,7.16
2017-11-30T01:57:07.350Z,7.15
2017-11-30T01:57:47.760Z,7.15
2017-11-30T01:58:28.373Z,7.16
2017-11-30T01:59:08.644Z,7.16
2017-11-30T01:59:48.910Z,7.11
2017-11-30T02:00:29.344Z,7.14
2017-11-30T02:01:09.699Z,7.15
2017-11-30T02:01:50.436Z,7.14
2017-11-30T02:02:31.748Z,7.11
2017-11-30T02:03:11.999Z,7.11
2017-11-30T02:03:52.442Z,7.19
2017-11-30T02:04:32.828Z,7.14
2017-11-30T02:05:13.289Z,7.16
2017-11-30T02:05:53.706Z,7.23
2017-11-30T02:06:34.095Z,7.26
2017-11-30T02:07:14.570Z,7.32
2017-11-30T02:07:55.340Z,7.27
2017-11-30T02:08:35.465Z,7.37
2017-11-30T02:09:16.732Z,7.34
2017-11-30T02:09:57.106Z,7.33
2017-11-30T02:10:37.510Z,7.48
2017-11-30T02:11:17.955Z,7.48
2017-11-30T02:11:58.357Z,7.48
2017-11-30T02:12:38.736Z,7.47
2017-11-30T02:13:19.079Z,7.39
2017-11-30T02:13:59.698Z,7.36
2017-11-30T02:14:39.911Z,7.37
2017-11-30T02:15:20.315Z,7.37
2017-11-30T02:16:00.772Z,7.47
2017-11-30T02:16:41.149Z,7.52
2017-11-30T02:17:21.579Z,7.54
2017-11-30T02:18:01.990Z,7.42
2017-11-30T02:18:42.387Z,7.58
2017-11-30T02:19:22.743Z,7.48
2017-11-30T02:20:03.210Z,7.51
2017-11-30T02:20:43.562Z,7.47
2017-11-30T02:21:23.967Z,7.5
2017-11-30T02:22:04.589Z,7.36
2017-11-30T02:22:44.816Z,7.26
2017-11-30T02:23:25.205Z,7.24
2017-11-30T02:24:05.661Z,7.18
2017-11-30T02:24:46.077Z,7.16
2017-11-30T02:25:28.393Z,7.09
2017-11-30T02:26:08.549Z,7.07
2017-11-30T02:26:49.001Z,7.11
2017-11-30T02:27:29.900Z,7.05
2017-11-30T02:28:10.342Z,7.09
2017-11-30T02:28:50.751Z,7
2017-11-30T02:29:31.211Z,6.99
2017-11-30T02:30:11.564Z,6.87
2017-11-30T02:30:52.049Z,6.91
2017-11-30T02:31:32.414Z,6.96
2017-11-30T02:32:12.765Z,6.9
2017-11-30T02:32:54.924Z,6.94
2017-11-30T02:33:38.166Z,6.91
2017-11-30T02:34:18.055Z,6.97
2017-11-30T02:34:58.512Z,6.93
2017-11-30T02:35:38.840Z,6.9
2017-11-30T02:36:20.689Z,6.83
2017-11-30T02:37:01.746Z,6.86
2017-11-30T02:37:42.831Z,6.65
2017-11-30T02:38:23.256Z,6.68
2017-11-30T02:39:03.630Z,6.71
2017-11-30T02:39:44.041Z,6.78
2017-11-30T02:40:24.537Z,6.78
2017-11-30T02:41:04.887Z,6.69
2017-11-30T02:41:45.305Z,6.71
2017-11-30T02:42:25.748Z,6.69
2017-11-30T02:43:06.125Z,6.75
2017-11-30T02:43:46.606Z,6.71
2017-11-30T02:44:27.048Z,6.68
2017-11-30T02:45:07.420Z,6.68
2017-11-30T02:45:47.842Z,6.57
2017-11-30T02:46:28.246Z,6.5
2017-11-30T02:47:08.790Z,6.53
2017-11-30T02:47:49.047Z,6.51
2017-11-30T02:48:29.562Z,6.48
2017-11-30T02:49:09.959Z,6.53
2017-11-30T02:49:50.312Z,6.55
2017-11-30T02:50:30.717Z,6.61
2017-11-30T02:51:11.127Z,6.78
2017-11-30T02:51:51.458Z,6.87
2017-11-30T02:52:31.863Z,6.93
2017-11-30T02:53:12.341Z,7.01
2017-11-30T02:53:52.682Z,6.99
2017-11-30T02:54:33.061Z,7.05
2017-11-30T02:55:13.464Z,7.01
2017-11-30T02:55:53.879Z,7.08
2017-11-30T02:56:34.273Z,7.14
2017-11-30T02:57:14.708Z,7.16
2017-11-30T02:57:55.072Z,7.09
2017-11-30T02:58:35.530Z,7.08
2017-11-30T02:59:15.910Z,7.07
2017-11-30T02:59:56.383Z,6.89
2017-11-30T03:00:36.725Z,6.87
2017-11-30T03:01:17.126Z,6.78
2017-11-30T03:01:57.563Z,6.69
2017-11-30T03:02:37.971Z,6.5
2017-11-30T03:03:18.352Z,6.54
2017-11-30T03:03:58.804Z,6.58
2017-11-30T03:04:39.163Z,6.51
2017-11-30T03:05:19.575Z,6.48
2017-11-30T03:06:00.014Z,6.4
2017-11-30T03:06:40.415Z,6.3
2017-11-30T03:07:20.823Z,6.33
2017-11-30T03:08:01.216Z,6.28
2017-11-30T03:08:41.616Z,6.32
2017-11-30T03:09:22.037Z,6.2
2017-11-30T03:10:02.420Z,6.16
2017-11-30T03:10:42.857Z,6.11
2017-11-30T03:11:23.210Z,6.2
2017-11-30T03:12:03.617Z,6.11
2017-11-30T03:12:44.038Z,6.19
2017-11-30T03:13:24.435Z,6.24
2017-11-30T03:14:04.857Z,6.11
2017-11-30T03:14:45.247Z,6.19
2017-11-30T03:15:25.654Z,6.25
2017-11-30T03:16:06.053Z,6.16
2017-11-30T03:16:46.462Z,6.11
2017-11-30T03:17:26.886Z,6.24
2017-11-30T03:18:07.307Z,6.19
2017-11-30T03:18:47.670Z,6.19
2017-11-30T03:19:28.100Z,6.27
2017-11-30T03:20:08.526Z,6.28
2017-11-30T03:20:48.934Z,6.16
2017-11-30T03:21:29.330Z,6.11
2017-11-30T03:22:09.712Z,6.14
2017-11-30T03:22:50.215Z,6.16
2017-11-30T03:23:30.516Z,6.17
2017-11-30T03:24:10.990Z,6.1
2017-11-30T03:24:51.366Z,5.99
2017-11-30T03:25:31.817Z,6.02
2017-11-30T03:26:12.216Z,5.95
2017-11-30T03:26:52.812Z,5.88
2017-11-30T03:27:33.179Z,5.74
2017-11-30T03:28:13.540Z,5.73
2017-11-30T03:28:53.946Z,5.65
2017-11-30T03:29:34.359Z,5.58
2017-11-30T03:30:14.773Z,5.59
2017-11-30T03:30:55.197Z,5.65
2017-11-30T03:31:35.623Z,5.56
2017-11-30T03:32:16.020Z,5.55
2017-11-30T03:32:56.421Z,5.44
2017-11-30T03:33:36.810Z,5.42
2017-11-30T03:34:17.201Z,5.42
2017-11-30T03:34:57.651Z,5.44
2017-11-30T03:35:38.057Z,5.33
2017-11-30T03:36:18.531Z,5.35
2017-11-30T03:36:58.848Z,5.41
2017-11-30T03:37:39.244Z,5.26
2017-11-30T03:38:19.817Z,5.29
2017-11-30T03:39:00.368Z,5.37
2017-11-30T03:39:40.944Z,5.27
2017-11-30T03:40:21.361Z,5.24
2017-11-30T03:41:01.750Z,5.32
2017-11-30T03:41:42.143Z,5.26
2017-11-30T03:42:23.468Z,5.27
2017-11-30T03:43:03.309Z,5.14
2017-11-30T03:43:43.784Z,5.06
2017-11-30T03:44:24.475Z,4.99
2017-11-30T03:45:04.923Z,4.9
2017-11-30T03:45:45.395Z,4.93
2017-11-30T03:46:25.767Z,4.83
2017-11-30T03:47:06.196Z,4.94
2017-11-30T03:47:46.716Z,4.91
2017-11-30T03:48:27.157Z,4.88
2017-11-30T03:49:07.718Z,4.86
2017-11-30T03:49:48.075Z,4.72
2017-11-30T03:50:28.495Z,4.84
2017-11-30T03:51:08.928Z,4.86
2017-11-30T03:51:49.331Z,4.77
2017-11-30T03:52:29.807Z,4.79
2017-11-30T03:53:10.639Z,4.74
2017-11-30T03:53:53.039Z,4.68
2017-11-30T03:54:31.812Z,4.68
2017-11-30T03:55:12.203Z,4.64
2017-11-30T03:55:52.842Z,4.74
2017-11-30T03:56:33.288Z,4.71
2017-11-30T03:57:14.407Z,4.75
2017-11-30T03:57:54.184Z,4.72
2017-11-30T03:58:34.581Z,4.61
2017-11-30T03:59:15.024Z,4.61
2017-11-30T03:59:55.419Z,4.65
2017-11-30T04:00:35.853Z,4.54
2017-11-30T04:01:17.744Z,4.61
2017-11-30T04:01:59.761Z,4.51
2017-11-30T04:53:10.452Z,4.62
2017-11-30T04:53:58.219Z,4.54
2017-11-30T04:56:45.907Z,4.38
2017-11-30T04:58:36.597Z,4.31
2017-11-30T04:59:18.689Z,4.28
2017-11-30T04:59:59.184Z,4.26
2017-11-30T05:00:39.551Z,4.21
2017-11-30T05:01:19.954Z,4.2
2017-11-30T05:02:00.420Z,4.17
2017-11-30T05:02:40.889Z,4.16
2017-11-30T05:03:21.227Z,4.18
2017-11-30T05:04:01.634Z,4.16
2017-11-30T05:04:42.106Z,4.11
2017-11-30T05:05:22.464Z,4.17
2017-11-30T05:06:02.903Z,4.2
2017-11-30T05:06:43.280Z,4.31
2017-11-30T05:07:23.702Z,4.26
2017-11-30T05:08:04.074Z,4.25
2017-11-30T05:08:44.519Z,4.25
2017-11-30T05:09:24.926Z,4.26
2017-11-30T05:10:05.320Z,4.29
2017-11-30T05:10:45.726Z,4.28
2017-11-30T05:11:26.150Z,4.29
2017-11-30T05:12:06.592Z,4.31
2017-11-30T05:12:47.015Z,4.29
2017-11-30T05:13:27.385Z,4.43
2017-11-30T05:14:07.780Z,4.51
2017-11-30T05:14:48.202Z,4.56
2017-11-30T05:15:28.618Z,4.68
2017-11-30T05:16:09.003Z,4.65
2017-11-30T05:16:49.444Z,4.83
2017-11-30T05:17:29.823Z,4.77
2017-11-30T05:18:10.244Z,4.88
2017-11-30T05:18:50.660Z,4.87
2017-11-30T05:19:31.082Z,4.99
2017-11-30T05:20:11.490Z,5.02
2017-11-30T05:20:51.931Z,5.06
2017-11-30T05:21:32.315Z,5.02
2017-11-30T05:22:12.840Z,5.05
2017-11-30T05:22:53.222Z,5.14
2017-11-30T05:23:33.594Z,5.17
2017-11-30T05:24:13.988Z,5.17
2017-11-30T05:24:54.393Z,4.87
2017-11-30T05:25:34.804Z,4.87
2017-11-30T05:26:15.211Z,4.9
2017-11-30T05:26:55.605Z,4.83
2017-11-30T05:27:35.994Z,4.72
2017-11-30T05:28:16.468Z,4.72
2017-11-30T05:28:56.858Z,4.72
2017-11-30T05:29:37.331Z,4.68
2017-11-30T05:30:17.687Z,4.72
2017-11-30T05:30:58.125Z,4.75
2017-11-30T05:31:38.488Z,4.71
2017-11-30T05:32:18.935Z,4.69
2017-11-30T05:32:59.380Z,4.69
2017-11-30T05:33:39.778Z,4.68
2017-11-30T05:34:20.147Z,4.62
2017-11-30T05:35:00.570Z,4.67
2017-11-30T05:35:40.952Z,4.61
2017-11-30T05:36:21.340Z,4.68
2017-11-30T05:37:02.364Z,4.62
2017-11-30T05:37:42.354Z,4.69
2017-11-30T05:38:22.758Z,4.64
2017-11-30T05:39:03.188Z,4.71
2017-11-30T05:39:43.532Z,4.67
2017-11-30T05:40:23.918Z,4.67
2017-11-30T05:41:04.296Z,4.61
2017-11-30T05:41:44.665Z,4.71
2017-11-30T05:42:25.052Z,4.68
2017-11-30T05:43:05.482Z,4.71
2017-11-30T05:43:45.859Z,4.72
2017-11-30T05:44:26.278Z,4.71
2017-11-30T05:45:06.635Z,4.72
2017-11-30T05:45:47.050Z,4.71
2017-11-30T05:46:27.451Z,4.77
2017-11-30T05:47:07.847Z,4.75
2017-11-30T05:47:48.245Z,4.79
2017-11-30T05:48:28.752Z,4.77
2017-11-30T05:49:09.049Z,4.8
2017-11-30T05:49:49.447Z,4.91
2017-11-30T05:50:29.897Z,4.83
2017-11-30T05:51:10.311Z,4.91
2017-11-30T05:51:50.757Z,4.91
2017-11-30T05:52:31.163Z,4.88
2017-11-30T05:53:11.587Z,4.88
2017-11-30T05:53:51.982Z,5.06
2017-11-30T05:54:32.366Z,5.09
2017-11-30T05:55:12.758Z,5.11
2017-11-30T05:55:53.159Z,5.17
2017-11-30T05:56:33.645Z,5.15
2017-11-30T05:57:14.032Z,5.23
2017-11-30T05:57:54.668Z,5.17
2017-11-30T05:58:35.168Z,5.17
2017-11-30T05:59:15.550Z,5.17
2017-11-30T05:59:55.970Z,5.26
2017-11-30T06:00:36.353Z,5.23
2017-11-30T06:01:16.952Z,5.17
2017-11-30T06:01:57.435Z,5.26
2017-11-30T06:02:37.840Z,5.23
2017-11-30T06:03:18.307Z,5.29
2017-11-30T06:03:58.713Z,5.32
2017-11-30T06:04:39.068Z,5.26
2017-11-30T06:05:19.491Z,5.4
2017-11-30T06:05:59.899Z,5.42
2017-11-30T06:06:40.340Z,5.48
2017-11-30T06:07:20.788Z,5.47
2017-11-30T06:08:01.156Z,5.47
2017-11-30T06:08:41.542Z,5.52
2017-11-30T06:09:21.979Z,5.52
2017-11-30T06:10:02.327Z,5.56
2017-11-30T06:10:42.714Z,5.55
2017-11-30T06:11:23.136Z,5.6
2017-11-30T06:12:03.552Z,5.75
2017-11-30T06:12:43.970Z,5.73
2017-11-30T06:13:24.341Z,5.63
2017-11-30T06:14:04.742Z,5.66
2017-11-30T06:14:45.206Z,5.65
2017-11-30T06:15:25.603Z,5.67
2017-11-30T06:16:06.035Z,5.65
2017-11-30T06:16:46.417Z,5.65
2017-11-30T06:17:26.795Z,5.75
2017-11-30T06:18:07.387Z,5.67
2017-11-30T06:18:47.882Z,5.74
2017-11-30T06:19:28.195Z,5.62
2017-11-30T06:21:06.157Z,5.6
2017-11-30T06:21:46.180Z,5.7
2017-11-30T06:22:26.637Z,5.77
2017-11-30T06:23:07.041Z,5.75
2017-11-30T06:23:47.435Z,5.81
2017-11-30T06:24:27.911Z,5.75
2017-11-30T06:25:08.258Z,5.85
2017-11-30T06:25:48.640Z,5.87
2017-11-30T06:26:29.047Z,5.87
2017-11-30T06:27:09.475Z,5.98
2017-11-30T06:27:49.876Z,6.01
2017-11-30T06:28:30.565Z,5.96
2017-11-30T06:29:11.267Z,6.17
2017-11-30T06:29:51.422Z,6.11
2017-11-30T06:30:36.777Z,6.3
2017-11-30T06:31:17.229Z,6.19
2017-11-30T06:31:57.638Z,6.25
2017-11-30T06:32:38.013Z,6.25
2017-11-30T06:33:18.420Z,6.35
2017-11-30T06:33:58.856Z,6.38
2017-11-30T06:34:39.279Z,6.35
2017-11-30T06:35:19.624Z,6.35
2017-11-30T06:36:00.039Z,6.32
2017-11-30T06:36:40.411Z,6.35
2017-11-30T06:37:20.877Z,6.36
2017-11-30T06:38:04.740Z,6.36
2017-11-30T06:38:44.628Z,6.42
2017-11-30T06:39:25.068Z,6.42
2017-11-30T06:40:05.415Z,6.45
2017-11-30T06:40:45.837Z,6.48
2017-11-30T06:41:26.266Z,6.46
2017-11-30T06:42:06.676Z,6.51
2017-11-30T06:42:47.110Z,6.54
2017-11-30T06:45:02.468Z,6.69
2017-11-30T06:45:46.176Z,6.68
2017-11-30T06:46:26.504Z,6.75
2017-11-30T06:47:07.054Z,6.87
2017-11-30T06:47:47.824Z,6.87
2017-11-30T06:48:28.286Z,7.05
2017-11-30T06:49:08.634Z,7.09
2017-11-30T06:49:49.152Z,7.09
2017-11-30T06:50:29.658Z,7.12
2017-11-30T06:51:10.033Z,7.15
2017-11-30T06:51:50.455Z,7.15
2017-11-30T06:52:30.938Z,7.19
2017-11-30T06:53:11.281Z,7.15
2017-11-30T06:53:51.864Z,7.21
2017-11-30T06:54:32.385Z,7.16
2017-11-30T06:55:12.797Z,7.34
2017-11-30T06:55:53.140Z,7.36
2017-11-30T06:56:33.541Z,7.45
2017-11-30T06:57:13.997Z,7.55
2017-11-30T06:57:54.420Z,7.76
2017-11-30T06:58:34.886Z,7.86
2017-11-30T06:59:15.209Z,7.88
2017-11-30T06:59:55.614Z,7.92
2017-11-30T07:00:36.081Z,7.84
2017-11-30T07:01:16.593Z,7.95
2017-11-30T07:01:57.960Z,7.96
2017-11-30T07:02:39.592Z,7.95
2017-11-30T07:03:19.364Z,7.96
2017-11-30T07:03:59.751Z,7.92
2017-11-30T07:04:40.377Z,8.03
2017-11-30T07:05:20.826Z,7.95
2017-11-30T07:06:01.381Z,7.91
2017-11-30T07:06:41.861Z,7.88
2017-11-30T07:07:22.699Z,7.95
2017-11-30T07:08:03.273Z,7.92
2017-11-30T07:08:43.595Z,7.96
2017-11-30T07:09:24.045Z,7.92
2017-11-30T07:10:04.782Z,7.95
2017-11-30T07:10:45.170Z,7.86
2017-11-30T07:11:25.581Z,7.82
2017-11-30T07:12:06.137Z,7.84
2017-11-30T07:12:47.035Z,7.85
2017-11-30T07:13:28.143Z,7.76
2017-11-30T07:14:09.020Z,7.73
2017-11-30T07:14:49.746Z,7.79
2017-11-30T07:15:30.804Z,7.84
2017-11-30T07:16:11.902Z,7.81
2017-11-30T07:16:53.572Z,7.84
2017-11-30T07:17:33.928Z,7.79
2017-11-30T07:18:14.082Z,7.71
2017-11-30T07:18:54.683Z,7.79
2017-11-30T07:19:36.012Z,7.81
2017-11-30T07:20:15.802Z,7.79
2017-11-30T07:20:56.835Z,7.79
2017-11-30T07:23:51.447Z,7.85
2017-11-30T07:26:40.679Z,8
2017-11-30T07:27:21.284Z,8.07
2017-11-30T07:28:01.805Z,8.07
2017-11-30T07:28:42.284Z,8.17
2017-11-30T07:29:22.876Z,8.18
2017-11-30T07:30:09.593Z,8.07
2017-11-30T07:30:50.215Z,8.06
2017-11-30T07:31:31.027Z,8.06
2017-11-30T07:32:12.529Z,8.09
2017-11-30T07:32:53.295Z,8.06
2017-11-30T07:33:34.014Z,8.04
2017-11-30T07:34:14.889Z,8.04
2017-11-30T07:35:05.764Z,8.03
2017-11-30T07:36:56.494Z,7.92
2017-11-30T07:37:39.625Z,7.94
2017-11-30T07:38:24.289Z,7.94
2017-11-30T07:39:01.413Z,7.91
2017-11-30T07:39:42.823Z,7.92
2017-11-30T07:40:24.631Z,7.91
2017-11-30T07:41:08.177Z,7.96
2017-11-30T07:41:49.780Z,7.92
2017-11-30T07:42:30.705Z,7.91
2017-11-30T07:43:14.246Z,7.95
2017-11-30T07:43:58.434Z,8
2017-11-30T07:44:38.902Z,8.04
2017-11-30T07:45:20.398Z,8.07
2017-11-30T07:46:01.178Z,8.13
2017-11-30T07:46:45.296Z,8.1
2017-11-30T07:47:26.039Z,8.13
2017-11-30T07:48:10.894Z,8.14
2017-11-30T07:48:53.452Z,8.32
2017-11-30T07:49:39.225Z,8.29
2017-11-30T07:50:20.272Z,8.36
2017-11-30T07:51:02.586Z,8.39
2017-11-30T07:52:28.464Z,8.29
2017-11-30T07:53:19.149Z,8.34
2017-11-30T07:54:02.051Z,8.18
2017-11-30T07:54:43.776Z,8.18
2017-11-30T07:55:25.690Z,8.21
2017-11-30T07:56:07.095Z,8.09
2017-11-30T07:56:50.755Z,8
2017-11-30T07:57:32.688Z,8.02
2017-11-30T07:58:14.821Z,8.03
2017-11-30T07:58:55.665Z,8.04
2017-11-30T07:59:40.083Z,8.04
2017-11-30T08:00:21.621Z,8.14
2017-11-30T08:01:05.174Z,8.07
2017-11-30T08:01:45.347Z,8.06
2017-11-30T08:02:29.435Z,8.17
2017-11-30T08:03:10.634Z,8.17
2017-11-30T08:03:51.289Z,8.27
2017-11-30T08:04:31.897Z,8.29
2017-11-30T08:05:12.538Z,8.36
2017-11-30T08:05:53.433Z,8.42
2017-11-30T08:06:34.097Z,8.32
2017-11-30T08:07:16.484Z,8.37
2017-11-30T08:07:57.150Z,8.27
2017-11-30T08:08:38.582Z,8.4
2017-11-30T08:09:21.615Z,8.4
2017-11-30T08:10:04.033Z,8.34
2017-11-30T08:10:44.903Z,8.39
2017-11-30T08:11:27.324Z,8.34
2017-11-30T08:12:08.812Z,8.45
2017-11-30T08:13:46.998Z,8.54
2017-11-30T08:14:33.022Z,8.47
2017-11-30T08:15:12.455Z,8.6
2017-11-30T08:15:53.140Z,8.52
2017-11-30T08:16:33.738Z,8.55
2017-11-30T08:17:21.544Z,8.54
2017-11-30T08:18:03.328Z,8.54
2017-11-30T08:18:43.795Z,8.57
2017-11-30T08:19:24.331Z,8.5
2017-11-30T08:20:05.001Z,8.49
2017-11-30T08:20:47.940Z,8.49
2017-11-30T08:21:28.384Z,8.54
2017-11-30T08:22:08.902Z,8.45
2017-11-30T08:22:50.072Z,8.45
2017-11-30T08:23:29.924Z,8.52
2017-11-30T08:24:10.323Z,8.55
2017-11-30T08:24:51.830Z,8.45
2017-11-30T08:25:32.753Z,8.67
2017-11-30T08:26:13.308Z,8.67
2017-11-30T08:26:53.775Z,8.78
2017-11-30T08:27:34.409Z,8.75
2017-11-30T08:28:15.269Z,8.75
2017-11-30T08:28:55.749Z,8.75
2017-11-30T08:29:36.279Z,8.73
2017-11-30T08:30:16.693Z,8.73
2017-11-30T08:30:57.491Z,8.76
2017-11-30T08:31:44.159Z,8.68
2017-11-30T08:32:24.408Z,8.78
2017-11-30T08:33:04.781Z,8.79
2017-11-30T08:33:45.203Z,8.67
2017-11-30T08:34:26.803Z,8.75
2017-11-30T08:35:07.857Z,8.7
2017-11-30T08:35:50.129Z,8.71
2017-11-30T08:36:30.519Z,8.73
2017-11-30T08:37:10.906Z,8.68
2017-11-30T08:37:51.904Z,8.78
2017-11-30T08:38:32.522Z,8.73
2017-11-30T08:39:13.717Z,8.76
2017-11-30T08:39:54.176Z,8.73
2017-11-30T08:40:34.872Z,8.75
2017-11-30T08:41:16.211Z,8.67
2017-11-30T08:41:56.727Z,8.64
2017-11-30T08:42:37.797Z,8.7
2017-11-30T08:43:18.990Z,8.63
2017-11-30T08:43:59.480Z,8.68
2017-11-30T08:44:39.986Z,8.73
2017-11-30T08:45:20.389Z,8.64
2017-11-30T08:46:00.790Z,8.75
2017-11-30T08:46:41.321Z,8.78
2017-11-30T08:47:21.915Z,8.83
2017-11-30T08:48:02.344Z,8.83
2017-11-30T08:48:43.072Z,8.89
2017-11-30T08:49:23.626Z,8.88
2017-11-30T08:50:04.954Z,8.83
2017-11-30T08:50:45.567Z,8.8
2017-11-30T08:51:26.698Z,8.85
2017-11-30T08:52:07.110Z,8.8
2017-11-30T08:52:47.566Z,8.78
2017-11-30T08:53:27.943Z,8.93
2017-11-30T08:54:08.714Z,8.93
2017-11-30T08:54:50.284Z,8.79
2017-11-30T08:55:30.729Z,8.71
2017-11-30T08:56:11.486Z,8.68
2017-11-30T08:56:52.264Z,8.65
2017-11-30T08:57:32.875Z,8.76
2017-11-30T08:58:13.548Z,8.76
2017-11-30T08:58:54.066Z,8.63
2017-11-30T08:59:34.530Z,8.65
2017-11-30T09:00:16.350Z,8.61
2017-11-30T09:00:57.065Z,8.64
2017-11-30T09:01:37.406Z,8.71
2017-11-30T09:02:19.733Z,8.65
2017-11-30T09:02:59.988Z,8.75
2017-11-30T09:03:40.541Z,8.85
2017-11-30T09:04:20.885Z,8.85
2017-11-30T09:05:02.096Z,8.8
2017-11-30T09:05:42.671Z,8.71
2017-11-30T09:06:23.356Z,8.78
2017-11-30T09:07:04.860Z,8.76
2017-11-30T09:07:45.879Z,8.76
2017-11-30T09:08:26.403Z,8.78
2017-11-30T09:09:07.279Z,8.79
2017-11-30T09:09:47.597Z,8.73
2017-11-30T09:10:29.508Z,8.73
2017-11-30T09:11:10.797Z,8.93
2017-11-30T09:11:51.871Z,8.93
2017-11-30T09:12:33.148Z,8.98
2017-11-30T09:13:13.956Z,8.94
2017-11-30T09:13:55.358Z,8.96
2017-11-30T09:14:35.812Z,8.97
2017-11-30T09:15:16.135Z,8.94
2017-11-30T09:15:56.578Z,8.88
2017-11-30T09:16:37.129Z,8.78
2017-11-30T09:17:17.873Z,8.76
2017-11-30T09:17:58.370Z,8.91
2017-11-30T09:18:39.602Z,8.78
2017-11-30T09:22:02.792Z,8.7
2017-11-30T09:22:50.775Z,8.76
2017-11-30T09:23:31.051Z,8.83
2017-11-30T09:24:11.697Z,8.73
2017-11-30T09:24:52.547Z,8.78
2017-11-30T09:25:47.690Z,8.75
2017-11-30T09:26:28.271Z,8.78
2017-11-30T09:27:08.774Z,8.71
2017-11-30T09:27:49.356Z,8.76
2017-11-30T09:31:40.713Z,8.78
2017-11-30T09:32:49.774Z,8.73
2017-11-30T09:33:49.431Z,8.64
2017-11-30T09:34:31.141Z,8.64
2017-11-30T09:35:12.088Z,8.65
2017-11-30T09:35:52.242Z,8.65
2017-11-30T09:36:33.177Z,8.57
2017-11-30T09:37:14.147Z,8.61
2017-11-30T09:37:54.595Z,8.52
2017-11-30T09:38:36.574Z,8.57
2017-11-30T09:39:17.330Z,8.54
2017-11-30T09:39:57.755Z,8.58
2017-11-30T09:40:39.043Z,8.6
2017-11-30T09:41:21.314Z,8.65
2017-11-30T09:42:04.070Z,8.73
2017-11-30T09:42:44.761Z,8.73
2017-11-30T09:43:25.345Z,8.8
2017-11-30T09:44:05.987Z,8.71
2017-11-30T09:44:46.549Z,8.8
2017-11-30T09:45:27.329Z,8.86
2017-11-30T09:46:09.693Z,8.79
2017-11-30T09:46:50.449Z,8.91
2017-11-30T09:47:30.858Z,8.94
2017-11-30T09:48:11.663Z,8.96
2017-11-30T09:48:52.270Z,8.98
2017-11-30T09:50:51.504Z,9.13
2017-11-30T09:52:58.682Z,9.22
2017-11-30T09:53:41.341Z,9.13
2017-11-30T09:54:21.894Z,9.24
2017-11-30T09:55:02.835Z,9.27
2017-11-30T09:55:47.929Z,9.35
2017-11-30T09:56:29.815Z,9.24
2017-11-30T09:57:10.797Z,9.26
2017-11-30T09:57:51.882Z,9.2
2017-11-30T09:58:34.184Z,9.15
2017-11-30T09:59:14.960Z,9.08
2017-11-30T09:59:57.856Z,9.08
2017-11-30T10:00:37.833Z,9.08
2017-11-30T10:01:18.954Z,8.91
2017-11-30T10:01:59.838Z,8.93
2017-11-30T10:02:40.819Z,9.08
2017-11-30T10:03:22.260Z,9.08
2017-11-30T10:42:01.991Z,7.84
2017-11-30T10:42:42.438Z,7.85
2017-11-30T10:43:24.481Z,7.94
2017-11-30T10:44:05.056Z,7.85
2017-11-30T10:44:45.637Z,7.84
2017-11-30T10:45:26.490Z,7.82
2017-11-30T10:46:06.890Z,7.99
2017-11-30T10:46:47.229Z,8.04
2017-11-30T10:47:27.576Z,8.04
2017-11-30T10:48:08.021Z,8.2
2017-11-30T10:48:49.646Z,8.04
2017-11-30T10:49:29.549Z,8.13
2017-11-30T10:50:10.089Z,8.13
2017-11-30T10:52:05.131Z,8.2
2017-11-30T10:52:45.219Z,8.17
2017-11-30T10:53:25.949Z,8.21
2017-11-30T10:55:39.638Z,8.29
2017-11-30T10:56:21.130Z,8.25
2017-11-30T10:57:01.450Z,8.28
2017-11-30T10:57:41.947Z,8.29
2017-11-30T10:58:23.201Z,8.27
2017-11-30T10:59:03.629Z,8.14